首页
METAR-TAF:

METAR-TAF

机场 :

St. Charles County Airport (Smart Field)

Saint Charles, 密蘇里州, 美国

纬度: 38-55-50N, 经度: 090-25-57W, 海拔: 133米

当前天气观测

该预报发布于42分钟前的18:54 UTC
风速9节,风向
温度 3°C
湿度 60%
气压 1035 hPa
能見度: 16.1公里
天空无云

METAR: KSET 191854Z AUTO 01009KT 10SM CLR 03/M04 A3056 RMK AO2 SLP352 T00331039

时间: 13:36 (19:36 UTC)


TAF: 丢失

超过4000个机场的气象观测和天气预报(METAR&TAF报告)。

可查询的气象台以黄色和红色小点在地图上表示。

将鼠标移到小点上方,可查看气象台名称。

然后点击查看天气观测和预报。

如需切换地图:点击带黑十字的绿色按钮放大地图;点击带横线的绿色按钮缩小地图;或者点击绿色箭头查看邻近地区的地图。


METAR-TAF: